createdAt,value
2024-03-16T00:01:19.986Z,51.15
2024-03-16T00:03:47.233Z,48.70
2024-03-16T00:06:20.572Z,51.05
2024-03-16T00:08:47.607Z,50.13
2024-03-16T00:11:19.065Z,50.45
2024-03-16T00:13:52.300Z,50.50
2024-03-16T00:16:20.871Z,50.67
2024-03-16T00:18:48.122Z,49.95
2024-03-16T00:21:17.695Z,50.05
2024-03-16T00:23:50.123Z,49.08
2024-03-16T00:26:19.840Z,51.25
2024-03-16T00:29:55.538Z,49.20
2024-03-16T00:32:24.517Z,47.17
2024-03-16T00:34:57.639Z,47.80
2024-03-16T00:37:44.418Z,48.30
2024-03-16T00:40:23.948Z,53.40
2024-03-16T00:43:19.302Z,56.00
2024-03-16T00:46:17.753Z,55.33
2024-03-16T00:48:45.638Z,59.30
2024-03-16T00:51:34.761Z,56.53
2024-03-16T00:54:09.022Z,55.50
2024-03-16T00:56:49.257Z,59.42
2024-03-16T00:59:31.668Z,57.08
2024-03-16T01:02:00.564Z,60.15
2024-03-16T01:04:36.383Z,58.75
2024-03-16T01:07:12.422Z,58.00
2024-03-16T01:10:03.347Z,60.15
2024-03-16T01:12:33.589Z,58.28
2024-03-16T01:15:22.788Z,55.17
2024-03-16T01:18:12.061Z,56.28
2024-03-16T01:20:54.475Z,54.40
2024-03-16T01:23:23.062Z,55.90
2024-03-16T01:25:56.151Z,53.28
2024-03-16T01:28:45.095Z,54.80
2024-03-16T01:31:14.441Z,53.55
2024-03-16T01:33:42.204Z,49.65
2024-03-16T01:36:23.262Z,52.30
2024-03-16T01:38:50.685Z,50.83
2024-03-16T01:41:18.464Z,49.25
2024-03-16T01:43:50.165Z,43.22
2024-03-16T01:46:21.458Z,40.65
2024-03-16T02:01:53.789Z,36.25
2024-03-16T02:04:20.950Z,36.67
2024-03-16T02:06:50.714Z,37.83
2024-03-16T02:09:18.010Z,36.90
2024-03-16T02:11:44.937Z,35.35
2024-03-16T02:14:12.326Z,36.80
2024-03-16T02:16:46.521Z,35.38
2024-03-16T02:19:13.639Z,38.40
2024-03-16T02:21:40.632Z,37.42
2024-03-16T02:24:07.977Z,35.42
2024-03-16T02:26:35.462Z,37.38
2024-03-16T02:29:03.815Z,39.63
2024-03-16T02:31:31.150Z,40.63
2024-03-16T02:33:59.872Z,41.08
2024-03-16T02:36:30.137Z,39.17
2024-03-16T02:38:57.236Z,40.55
2024-03-16T02:41:24.247Z,38.58
2024-03-16T02:43:51.356Z,41.03
2024-03-16T02:46:18.631Z,42.17
2024-03-16T02:48:46.894Z,40.72
2024-03-16T02:51:13.923Z,40.72
2024-03-16T02:53:41.226Z,40.25
2024-03-16T02:56:08.253Z,39.65
2024-03-16T02:58:35.617Z,37.35
2024-03-16T03:01:02.914Z,36.20
2024-03-16T03:03:31.002Z,39.15
2024-03-16T03:05:58.131Z,38.65
2024-03-16T03:08:25.201Z,39.15
2024-03-16T03:10:52.262Z,36.13
2024-03-16T03:13:19.324Z,38.13
2024-03-16T03:15:50.159Z,35.35
2024-03-16T03:18:17.482Z,34.55
2024-03-16T03:20:46.470Z,32.28
2024-03-16T03:23:13.512Z,30.52
2024-03-16T03:25:41.272Z,30.48
2024-03-16T03:28:08.407Z,30.88
2024-03-16T03:30:35.977Z,30.92
2024-03-16T03:33:03.120Z,29.38
2024-03-16T03:35:33.117Z,30.83
2024-03-16T03:38:00.178Z,30.55
2024-03-16T03:40:27.424Z,30.00
2024-03-16T03:42:57.349Z,28.85
2024-03-16T03:45:39.651Z,30.05
2024-03-16T03:48:25.026Z,29.83
2024-03-16T03:50:53.153Z,30.40
2024-03-16T03:53:21.657Z,29.83
2024-03-16T03:55:49.160Z,31.70
2024-03-16T03:58:16.343Z,30.25
2024-03-16T04:15:03.096Z,33.03
2024-03-16T04:17:30.401Z,30.20
2024-03-16T04:19:57.356Z,30.02
2024-03-16T04:22:24.729Z,30.33
2024-03-16T04:24:51.790Z,27.63
2024-03-16T04:27:18.847Z,27.08
2024-03-16T04:29:45.968Z,26.33
2024-03-16T04:32:13.057Z,27.83
2024-03-16T04:34:41.413Z,28.15
2024-03-16T04:37:10.196Z,27.45
2024-03-16T04:39:37.617Z,27.60
2024-03-16T04:42:04.841Z,28.25
2024-03-16T04:44:32.290Z,30.05
2024-03-16T04:46:59.820Z,27.88
2024-03-16T04:49:26.790Z,27.27
2024-03-16T04:51:53.894Z,26.83
2024-03-16T04:54:20.828Z,26.52
2024-03-16T04:56:48.329Z,26.02
2024-03-16T04:59:15.431Z,26.48
2024-03-16T05:01:43.187Z,25.40
2024-03-16T05:04:10.547Z,24.25
2024-03-16T05:06:37.724Z,23.50
2024-03-16T05:09:07.761Z,23.92
2024-03-16T05:11:34.864Z,23.70
2024-03-16T05:14:03.812Z,24.15
2024-03-16T05:16:30.914Z,23.33
2024-03-16T05:18:58.803Z,23.55
2024-03-16T05:21:26.023Z,23.52
2024-03-16T05:23:53.490Z,24.35
2024-03-16T05:26:20.428Z,22.33
2024-03-16T05:28:47.471Z,23.63
2024-03-16T05:31:14.429Z,24.80
2024-03-16T05:33:41.499Z,23.95
2024-03-16T05:36:11.098Z,21.77
2024-03-16T05:38:41.389Z,22.17
2024-03-16T05:41:08.383Z,21.85
2024-03-16T05:43:36.383Z,23.98
2024-03-16T05:46:03.651Z,25.10
2024-03-16T05:48:30.596Z,25.67
2024-03-16T05:50:57.721Z,25.27
2024-03-16T05:53:25.428Z,27.75
2024-03-16T05:55:52.512Z,29.83
2024-03-16T05:58:22.333Z,23.92
2024-03-16T06:00:50.038Z,23.25
2024-03-16T06:03:17.430Z,25.10
2024-03-16T06:05:49.097Z,24.98
2024-03-16T06:08:16.011Z,24.05
2024-03-16T06:10:43.416Z,25.48
2024-03-16T06:13:12.276Z,24.83
2024-03-16T06:15:41.231Z,24.17
2024-03-16T06:18:08.757Z,23.90
2024-03-16T06:20:35.818Z,26.05
2024-03-16T06:23:02.874Z,25.70
2024-03-16T06:25:30.938Z,26.55
2024-03-16T06:28:07.954Z,25.63
2024-03-16T06:30:35.828Z,26.33
2024-03-16T06:33:12.060Z,27.38
2024-03-16T06:35:43.000Z,25.77
2024-03-16T06:38:10.878Z,26.15
2024-03-16T06:40:38.401Z,25.90
2024-03-16T06:43:05.888Z,26.60
2024-03-16T06:45:33.074Z,24.65
2024-03-16T06:48:00.226Z,26.25
2024-03-16T06:50:27.476Z,21.17
2024-03-16T06:52:54.621Z,19.85
2024-03-16T06:55:22.004Z,20.52
2024-03-16T06:57:49.519Z,20.80
2024-03-16T07:02:57.448Z,20.38
2024-03-16T07:05:25.006Z,19.73
2024-03-16T07:07:52.309Z,19.10
2024-03-16T07:10:19.780Z,19.42
2024-03-16T07:12:48.536Z,18.00
2024-03-16T07:15:17.082Z,20.00
2024-03-16T07:17:44.736Z,19.02
2024-03-16T07:20:16.141Z,21.65
2024-03-16T07:22:43.456Z,19.38
2024-03-16T07:25:10.899Z,18.25
2024-03-16T07:27:47.297Z,19.35
2024-03-16T07:30:14.633Z,18.60
2024-03-16T07:32:41.769Z,18.35
2024-03-16T07:35:08.742Z,18.58
2024-03-16T07:37:36.066Z,19.20
2024-03-16T07:40:15.410Z,17.63
2024-03-16T07:42:48.013Z,18.15
2024-03-16T07:45:16.412Z,18.77
2024-03-16T07:47:43.954Z,19.08
2024-03-16T07:50:12.098Z,18.55
2024-03-16T07:52:42.066Z,18.65
2024-03-16T07:55:11.286Z,17.40
2024-03-16T07:57:38.396Z,18.63
2024-03-16T08:00:17.767Z,18.98
2024-03-16T08:02:45.241Z,17.85
2024-03-16T08:05:13.905Z,17.40
2024-03-16T08:07:46.030Z,17.15
2024-03-16T08:10:22.436Z,17.92
2024-03-16T08:12:49.652Z,17.23
2024-03-16T08:15:16.908Z,15.57
2024-03-16T08:17:54.110Z,15.30
2024-03-16T08:20:24.923Z,16.17
2024-03-16T08:22:56.024Z,17.13
2024-03-16T08:25:23.711Z,15.05
2024-03-16T08:27:51.049Z,14.73
2024-03-16T08:30:27.276Z,15.48
2024-03-16T08:32:56.778Z,15.63
2024-03-16T08:35:36.824Z,16.55
2024-03-16T08:38:22.348Z,16.30
2024-03-16T08:40:50.580Z,14.75
2024-03-16T08:43:18.178Z,14.20
2024-03-16T08:45:45.501Z,13.57
2024-03-16T08:48:12.964Z,14.60
2024-03-16T08:50:40.196Z,14.02
2024-03-16T08:53:08.132Z,14.40
2024-03-16T08:55:35.415Z,14.23
2024-03-16T08:58:27.295Z,13.00
2024-03-16T09:00:55.887Z,10.32
2024-03-16T09:03:24.465Z,10.63
2024-03-16T09:05:51.511Z,10.93
2024-03-16T09:08:18.849Z,11.05
2024-03-16T09:10:48.770Z,14.95
2024-03-16T09:13:16.683Z,14.80
2024-03-16T09:16:04.426Z,13.82
2024-03-16T09:18:31.877Z,16.55
2024-03-16T09:21:04.636Z,14.55
2024-03-16T09:23:34.148Z,14.68
2024-03-16T09:26:09.322Z,14.35
2024-03-16T09:28:36.317Z,14.82
2024-03-16T09:31:06.958Z,13.70
2024-03-16T09:33:34.078Z,14.00
2024-03-16T09:36:01.551Z,13.65
2024-03-16T09:38:28.549Z,12.52
2024-03-16T09:40:58.957Z,11.50
